Mandarin Grace — 9V8352 — position and weather

sailwx.info

Track history (hours):
 
Tides and Currents Weather Stations Pressure Air Temp Water Temp Dewpoint Dewpoint Depression Visibility Wind Speed Wind Dir Waves Ship Positions

Mandarin Grace

Last reported at 2015-Aug-02 05:25 UTC. Time now 2015-Aug-02 06:19 UTC.
Position N 01°18' E 103°43'.

Length 190 m; draft 11.2 m.

Type: Cargo ship. MMSI: 563862000.

Date/timePositionNaut miles runAvg speedWind from/ knotsBaromVisibWave heightAir tempDewpointWater temp
2015-Aug-02 05:25N 01°18' E 103°43'0 0.0
2015-Aug-02 02:31N 01°18' E 103°43'0 0.0
2015-Aug-02 00:13N 01°18' E 103°43'0 0.0
2015-Aug-01 16:22N 01°18' E 103°43'0 0.0
2015-Aug-01 15:19N 01°18' E 103°43'0 0.0
2015-Aug-01 14:31N 01°18' E 103°43'0 0.0
2015-Aug-01 13:22N 01°18' E 103°43'0 0.0
2015-Aug-01 12:31N 01°18' E 103°43'0 0.0
2015-Aug-01 11:19N 01°18' E 103°43'0 0.0
2015-Aug-01 10:28N 01°18' E 103°43'0 0.0
2015-Aug-01 05:04N 01°18' E 103°43'0 0.0
2015-Aug-01 04:13N 01°18' E 103°43'0 0.0
2015-Aug-01 03:31N 01°18' E 103°43'0 0.0
2015-Aug-01 02:25N 01°18' E 103°43'0 0.0
2015-Jul-31 19:16N 01°18' E 103°43'0 0.0
2015-Jul-31 18:31N 01°18' E 103°43'0 0.0
2015-Jul-31 17:25N 01°18' E 103°43'0 0.0
2015-Jul-31 16:31N 01°18' E 103°43'0 0.0
2015-Jul-31 15:31N 01°18' E 103°43'0 0.0
2015-Jul-31 14:25N 01°18' E 103°43'0 0.0
2015-Jul-31 13:28N 01°18' E 103°43'0 0.0
2015-Jul-31 12:31N 01°18' E 103°43'0 0.0
2015-Jul-31 11:19N 01°18' E 103°43'0 0.0
2015-Jul-31 10:31N 01°18' E 103°43'0 0.0
2015-Jul-31 09:25N 01°18' E 103°43'0 0.0
2015-Jul-31 07:25N 01°18' E 103°43'0 0.0
2015-Jul-31 06:31N 01°18' E 103°43'0 0.0
2015-Jul-31 05:31N 01°18' E 103°43'0 0.0
2015-Jul-31 04:31N 01°18' E 103°43'0 0.0
2015-Jul-31 03:31N 01°18' E 103°43'0 0.0
2015-Jul-31 01:31N 01°18' E 103°43'0 0.0
2015-Jul-31 00:25N 01°18' E 103°43'0 0.0
2015-Jul-30 22:13N 01°18' E 103°43'0 0.0
2015-Jul-30 21:31N 01°18' E 103°43'0 0.0
2015-Jul-30 17:13N 01°18' E 103°43'0 0.0
2015-Jul-30 16:31N 01°18' E 103°43'0 0.0
2015-Jul-30 15:31N 01°18' E 103°43'0 0.0
2015-Jul-30 14:31N 01°18' E 103°43'0 0.0
2015-Jul-30 13:31N 01°18' E 103°43'0 0.0
2015-Jul-30 12:25N 01°18' E 103°43'0 0.0
2015-Jul-30 09:10N 01°18' E 103°43'0 0.0
2015-Jul-30 08:31N 01°18' E 103°43'0 0.0
2015-Jul-30 07:31N 01°18' E 103°43'0 0.0
2015-Jul-30 06:25N 01°18' E 103°43'0 0.0
2015-Jul-30 05:31N 01°18' E 103°43'0 0.0
2015-Jul-30 04:16N 01°18' E 103°43'0 0.0
2015-Jul-30 02:22N 01°18' E 103°43'0 0.0
2015-Jul-30 01:10N 01°18' E 103°43'0 0.0
2015-Jul-30 00:10N 01°18' E 103°43'0 0.0
2015-Jul-29 23:28N 01°18' E 103°43'0 0.0
2015-Jul-29 22:25N 01°18' E 103°43'0 0.0
2015-Jul-29 21:31N 01°18' E 103°43'0 0.0
2015-Jul-29 20:19N 01°18' E 103°43'0 0.0
2015-Jul-29 19:25N 01°18' E 103°43'0 0.0
2015-Jul-29 17:22N 01°18' E 103°43'0 0.0
2015-Jul-29 16:22N 01°18' E 103°43'0 0.0
2015-Jul-29 15:31N 01°18' E 103°43'0 0.0
2015-Jul-29 14:31N 01°18' E 103°43'0 0.0
2015-Jul-29 04:24N 01°18' E 103°43'1 1.1
2015-Jul-29 03:33N 01°18' E 103°44'4 4.3
2015-Jul-29 02:33N 01°15' E 103°47'8 7.7
2015-Jul-29 01:33N 01°14' E 103°54'2 1.7
2015-Jul-29 00:31N 01°16' E 103°54'0 0.0
2015-Jul-28 23:22N 01°16' E 103°54'0 0.0
2015-Jul-28 22:04N 01°16' E 103°54'0 0.1
2015-Jul-28 21:31N 01°16' E 103°54'0 0.1
2015-Jul-28 20:25N 01°16' E 103°54'0 0.1
2015-Jul-28 19:28N 01°16' E 103°54'0 0.0
2015-Jul-28 18:28N 01°16' E 103°54'0 0.0
2015-Jul-28 17:31N 01°16' E 103°54'1 1.3
2015-Jul-28 16:33N 01°16' E 103°56'3 3.2
2015-Jul-28 15:33N 01°14' E 103°53'6 5.7
2015-Jul-28 14:33N 01°15' E 103°59'9 8.9
2015-Jul-28 13:33N 01°16' E 104°08'  
2015-Jul-23 17:20N 19°42' E 119°45'2212.2
2015-Jul-23 15:33N 19°58' E 119°59'1211.5
2015-Jul-23 14:33N 20°06' E 120°09'1110.8
2015-Jul-23 13:33N 20°12' E 120°18'  
Track history (hours):
 
Tides and Currents Weather Stations Pressure Air Temp Water Temp Dewpoint Dewpoint Depression Visibility Wind Speed Wind Dir Waves Ship Positions

Mandarin Grace

Last reported at 2015-Aug-02 05:25 UTC. Time now 2015-Aug-02 06:19 UTC.
Position N 01°18' E 103°43'.

Length 190 m; draft 11.2 m.

Type: Cargo ship. MMSI: 563862000.

Date/timePositionNaut miles runAvg speedWind from/ knotsBaromVisibWave heightAir tempDewpointWater temp
2015-Aug-02 05:25N 01°18' E 103°43'0 0.0
2015-Aug-02 02:31N 01°18' E 103°43'0 0.0
2015-Aug-02 00:13N 01°18' E 103°43'0 0.0
2015-Aug-01 16:22N 01°18' E 103°43'0 0.0
2015-Aug-01 15:19N 01°18' E 103°43'0 0.0
2015-Aug-01 14:31N 01°18' E 103°43'0 0.0
2015-Aug-01 13:22N 01°18' E 103°43'0 0.0
2015-Aug-01 12:31N 01°18' E 103°43'0 0.0
2015-Aug-01 11:19N 01°18' E 103°43'0 0.0
2015-Aug-01 10:28N 01°18' E 103°43'0 0.0
2015-Aug-01 05:04N 01°18' E 103°43'0 0.0
2015-Aug-01 04:13N 01°18' E 103°43'0 0.0
2015-Aug-01 03:31N 01°18' E 103°43'0 0.0
2015-Aug-01 02:25N 01°18' E 103°43'0 0.0
2015-Jul-31 19:16N 01°18' E 103°43'0 0.0
2015-Jul-31 18:31N 01°18' E 103°43'0 0.0
2015-Jul-31 17:25N 01°18' E 103°43'0 0.0
2015-Jul-31 16:31N 01°18' E 103°43'0 0.0
2015-Jul-31 15:31N 01°18' E 103°43'0 0.0
2015-Jul-31 14:25N 01°18' E 103°43'0 0.0
2015-Jul-31 13:28N 01°18' E 103°43'0 0.0
2015-Jul-31 12:31N 01°18' E 103°43'0 0.0
2015-Jul-31 11:19N 01°18' E 103°43'0 0.0
2015-Jul-31 10:31N 01°18' E 103°43'0 0.0
2015-Jul-31 09:25N 01°18' E 103°43'0 0.0
2015-Jul-31 07:25N 01°18' E 103°43'0 0.0
2015-Jul-31 06:31N 01°18' E 103°43'0 0.0
2015-Jul-31 05:31N 01°18' E 103°43'0 0.0
2015-Jul-31 04:31N 01°18' E 103°43'0 0.0
2015-Jul-31 03:31N 01°18' E 103°43'0 0.0
2015-Jul-31 01:31N 01°18' E 103°43'0 0.0
2015-Jul-31 00:25N 01°18' E 103°43'0 0.0
2015-Jul-30 22:13N 01°18' E 103°43'0 0.0
2015-Jul-30 21:31N 01°18' E 103°43'0 0.0
2015-Jul-30 17:13N 01°18' E 103°43'0 0.0
2015-Jul-30 16:31N 01°18' E 103°43'0 0.0
2015-Jul-30 15:31N 01°18' E 103°43'0 0.0
2015-Jul-30 14:31N 01°18' E 103°43'0 0.0
2015-Jul-30 13:31N 01°18' E 103°43'0 0.0
2015-Jul-30 12:25N 01°18' E 103°43'0 0.0
2015-Jul-30 09:10N 01°18' E 103°43'0 0.0
2015-Jul-30 08:31N 01°18' E 103°43'0 0.0
2015-Jul-30 07:31N 01°18' E 103°43'0 0.0
2015-Jul-30 06:25N 01°18' E 103°43'0 0.0
2015-Jul-30 05:31N 01°18' E 103°43'0 0.0
2015-Jul-30 04:16N 01°18' E 103°43'0 0.0
2015-Jul-30 02:22N 01°18' E 103°43'0 0.0
2015-Jul-30 01:10N 01°18' E 103°43'0 0.0
2015-Jul-30 00:10N 01°18' E 103°43'0 0.0
2015-Jul-29 23:28N 01°18' E 103°43'0 0.0
2015-Jul-29 22:25N 01°18' E 103°43'0 0.0
2015-Jul-29 21:31N 01°18' E 103°43'0 0.0
2015-Jul-29 20:19N 01°18' E 103°43'0 0.0
2015-Jul-29 19:25N 01°18' E 103°43'0 0.0
2015-Jul-29 17:22N 01°18' E 103°43'0 0.0
2015-Jul-29 16:22N 01°18' E 103°43'0 0.0
2015-Jul-29 15:31N 01°18' E 103°43'0 0.0
2015-Jul-29 14:31N 01°18' E 103°43'0 0.0
2015-Jul-29 04:24N 01°18' E 103°43'1 1.1
2015-Jul-29 03:33N 01°18' E 103°44'4 4.3
2015-Jul-29 02:33N 01°15' E 103°47'8 7.7
2015-Jul-29 01:33N 01°14' E 103°54'2 1.7
2015-Jul-29 00:31N 01°16' E 103°54'0 0.0
2015-Jul-28 23:22N 01°16' E 103°54'0 0.0
2015-Jul-28 22:04N 01°16' E 103°54'0 0.1
2015-Jul-28 21:31N 01°16' E 103°54'0 0.1
2015-Jul-28 20:25N 01°16' E 103°54'0 0.1
2015-Jul-28 19:28N 01°16' E 103°54'0 0.0
2015-Jul-28 18:28N 01°16' E 103°54'0 0.0
2015-Jul-28 17:31N 01°16' E 103°54'1 1.3
2015-Jul-28 16:33N 01°16' E 103°56'3 3.2
2015-Jul-28 15:33N 01°14' E 103°53'6 5.7
2015-Jul-28 14:33N 01°15' E 103°59'9 8.9
2015-Jul-28 13:33N 01°16' E 104°08'  
2015-Jul-23 17:20N 19°42' E 119°45'2212.2
2015-Jul-23 15:33N 19°58' E 119°59'1211.5
2015-Jul-23 14:33N 20°06' E 120°09'1110.8
2015-Jul-23 13:33N 20°12' E 120°18'  

Dump ship's entire track history